Mega Smeralda — ICIU — position and weather

sailwx.info

Track history (hours):
 
Tides and Currents Weather Stations Pressure Air Temp Water Temp Dewpoint Dewpoint Depression Visibility Wind Speed Wind Dir Waves Ship Positions

Mega Smeralda

Last reported at 2016-Jun-29 17:34 UTC. Time now 2016-Jun-29 18:16 UTC.
Position N 43°07' E 005°56'.

Length 171 m; draft 6.4 m.

Type: Passenger vessel. MMSI: 247228600.

Date/timePositionNaut miles runAvg speedWind from/ knotsBaromVisibWave heightAir tempDewpointWater temp
2016-Jun-29 17:34N 43°07' E 005°56'1211.7
2016-Jun-29 16:32N 42°57' E 006°05'6218.4
2016-Jun-29 13:10N 42°25' E 007°17'2018.5
2016-Jun-29 12:05N 42°14' E 007°40'1018.4
2016-Jun-29 11:32N 42°08' E 007°51'2118.4
2016-Jun-29 10:25N 41°57' E 008°15'42 4.2
2016-Jun-29 00:33N 42°20' E 007°27'1716.5
2016-Jun-28 23:32N 42°29' E 007°08'1716.6
2016-Jun-28 22:32N 42°37' E 006°49'1716.8
2016-Jun-28 21:32N 42°46' E 006°30'1916.6
2016-Jun-28 20:24N 42°56' E 006°08'1315.0
2016-Jun-28 19:32N 43°05' E 005°55'2 1.6
2016-Jun-28 18:31N 43°07' E 005°56'0 0.5
2016-Jun-28 17:33N 43°07' E 005°55'1714.8
2016-Jun-28 16:24N 42°56' E 006°14'1819.2
2016-Jun-28 15:29N 43°02' E 006°37'1920.2
2016-Jun-28 14:34N 43°16' E 006°54'2020.3
2016-Jun-28 13:34N 43°31' E 007°12'1110.9
2016-Jun-28 12:33N 43°41' E 007°17'1716.4
2016-Jun-28 11:32N 43°34' E 007°38'2020.4
2016-Jun-28 10:33N 43°27' E 008°04'2020.0
2016-Jun-28 09:33N 43°19' E 008°29'2019.9
2016-Jun-28 08:33N 43°12' E 008°55'2020.0
2016-Jun-28 07:33N 43°05' E 009°20'1817.9
2016-Jun-28 06:34N 42°50' E 009°32'8 4.0
2016-Jun-28 04:33N 42°42' E 009°29'1211.6
2016-Jun-28 03:33N 42°54' E 009°32'1212.3
2016-Jun-28 02:32N 43°06' E 009°26'1212.7
2016-Jun-28 01:33N 43°16' E 009°17'1312.9
2016-Jun-28 00:33N 43°27' E 009°09'1312.6
2016-Jun-27 23:33N 43°38' E 008°60'1212.4
2016-Jun-27 22:33N 43°49' E 008°51'1312.6
2016-Jun-27 21:33N 43°60' E 008°42'1312.6
2016-Jun-27 20:33N 44°11' E 008°33'7 6.8
2016-Jun-27 19:31N 44°16' E 008°27'0 0.0
2016-Jun-27 18:25N 44°16' E 008°27'0 0.0
2016-Jun-27 17:31N 44°16' E 008°27'0 0.0
2016-Jun-27 16:31N 44°16' E 008°27'0 0.0
2016-Jun-27 15:31N 44°16' E 008°27'9 9.8
2016-Jun-27 14:33N 44°10' E 008°37'2019.8
2016-Jun-27 13:33N 43°52' E 008°50'2020.1
2016-Jun-27 12:33N 43°35' E 009°04'2019.9
2016-Jun-27 11:34N 43°18' E 009°18'1919.3
2016-Jun-27 10:33N 43°02' E 009°34'16 2.6
2016-Jun-27 04:29N 42°46' E 009°32'1717.4
2016-Jun-27 03:30N 43°03' E 009°26'5819.4
2016-Jun-27 00:30N 43°00' E 008°07'2219.5
2016-Jun-26 23:22N 42°59' E 007°37'1619.4
2016-Jun-26 22:33N 42°58' E 007°15'5617.8
2016-Jun-26 19:26N 43°03' E 005°59'5 5.6
2016-Jun-26 18:33N 43°07' E 005°56'0 0.0
2016-Jun-26 17:33N 43°07' E 005°56'0 0.0
2016-Jun-26 16:33N 43°07' E 005°56'0 0.0
2016-Jun-26 15:33N 43°07' E 005°56'0 0.0
2016-Jun-26 14:33N 43°07' E 005°56'0 0.0
2016-Jun-26 13:33N 43°07' E 005°56'0 0.0
2016-Jun-26 12:33N 43°07' E 005°56'0 0.0
2016-Jun-26 11:33N 43°07' E 005°56'0 0.0
2016-Jun-26 10:33N 43°07' E 005°56'0 0.0
2016-Jun-26 09:33N 43°07' E 005°56'0 0.0
2016-Jun-26 08:33N 43°07' E 005°56'0 0.0
2016-Jun-26 07:33N 43°07' E 005°56'0 0.0
2016-Jun-26 06:33N 43°07' E 005°56'4013.1
2016-Jun-26 03:31N 42°42' E 006°39'1717.5
2016-Jun-26 02:33N 42°33' E 006°58'1717.4
2016-Jun-26 01:33N 42°24' E 007°18'34 3.7
2016-Jun-25 16:33N 42°38' E 007°59'2020.2
2016-Jun-25 15:33N 42°56' E 007°47'2019.8
2016-Jun-25 14:33N 43°14' E 007°36'2020.1
2016-Jun-25 13:33N 43°32' E 007°23'1110.1
2016-Jun-25 12:29N 43°42' E 007°17'5 5.6
2016-Jun-25 11:33N 43°37' E 007°20'2020.1
2016-Jun-25 10:33N 43°19' E 007°32'2020.3
2016-Jun-25 09:33N 43°01' E 007°44'2020.5
2016-Jun-25 08:33N 42°42' E 007°56'2020.3
2016-Jun-25 07:33N 42°24' E 008°09'37 4.5
2016-Jun-24 23:18N 42°24' E 007°18'1517.9
2016-Jun-24 22:29N 42°32' E 007°01'1717.8
2016-Jun-24 21:32N 42°41' E 006°42'1817.9
2016-Jun-24 20:30N 42°50' E 006°21'2017.9
2016-Jun-24 19:24N 43°03' E 005°59'5 5.8
2016-Jun-24 18:34N 43°07' E 005°56'0 0.0
2016-Jun-24 17:34N 43°07' E 005°56'0 0.0
2016-Jun-24 16:34N 43°07' E 005°56'0 0.0
2016-Jun-24 15:34N 43°07' E 005°56'0 0.0
2016-Jun-24 14:34N 43°07' E 005°56'0 0.0
2016-Jun-24 13:31N 43°07' E 005°56'0 0.0
2016-Jun-24 12:31N 43°07' E 005°56'0 0.0
2016-Jun-24 11:31N 43°07' E 005°56'0 0.0
2016-Jun-24 10:34N 43°07' E 005°56'0 0.0
2016-Jun-24 09:33N 43°07' E 005°56'0 0.0
2016-Jun-24 08:34N 43°07' E 005°56'0 0.0
2016-Jun-24 07:34N 43°07' E 005°56'2 0.7
2016-Jun-24 04:33N 43°05' E 005°57'5216.7
2016-Jun-24 01:27N 42°58' E 007°07'2018.5
2016-Jun-24 00:23N 42°59' E 007°34'1618.3
2016-Jun-23 23:29N 43°00' E 007°57'1718.7
2016-Jun-23 22:34N 43°01' E 008°20'1818.5
2016-Jun-23 21:33N 43°02' E 008°46'1918.5
2016-Jun-23 20:34N 43°03' E 009°11'1615.8
2016-Jun-23 19:33N 42°58' E 009°32'17 4.8
2016-Jun-23 16:06N 42°42' E 009°28'917.1
2016-Jun-23 15:33N 42°48' E 009°38'1818.4
2016-Jun-23 14:33N 42°60' E 009°57'1919.2
2016-Jun-23 13:33N 43°18' E 010°06'1716.6
2016-Jun-23 12:33N 43°32' E 010°16'1 1.3
2016-Jun-23 11:32N 43°33' E 010°18'0 0.4
2016-Jun-23 10:34N 43°33' E 010°18'1313.1
2016-Jun-23 09:33N 43°21' E 010°09'1716.6
2016-Jun-23 08:33N 43°06' E 010°01'1616.3
2016-Jun-23 07:33N 42°53' E 009°48'12 2.9
2016-Jun-23 03:33N 42°54' E 009°32'1312.6
2016-Jun-23 02:33N 43°06' E 009°26'1312.7
2016-Jun-23 01:34N 43°17' E 009°17'1312.7
2016-Jun-23 00:33N 43°28' E 009°09'1312.7
2016-Jun-22 23:33N 43°39' E 008°60'1312.6
2016-Jun-22 22:33N 43°50' E 008°51'1212.5
2016-Jun-22 21:33N 44°00' E 008°42'1212.4
2016-Jun-22 20:33N 44°11' E 008°33'7 6.1
2016-Jun-22 19:28N 44°16' E 008°27'0 0.0
2016-Jun-22 18:31N 44°16' E 008°27'0 0.0
2016-Jun-22 17:31N 44°16' E 008°27'0 0.0
2016-Jun-22 16:31N 44°16' E 008°27'0 0.0
2016-Jun-22 15:31N 44°16' E 008°27'9 8.9
2016-Jun-22 14:33N 44°10' E 008°36'2020.0
2016-Jun-22 13:33N 43°53' E 008°50'2020.3
2016-Jun-22 12:34N 43°35' E 009°04'2120.7
2016-Jun-22 11:33N 43°17' E 009°18'2120.5
2016-Jun-22 10:33N 42°60' E 009°32'13 2.1
2016-Jun-22 04:19N 42°47' E 009°32'911.9
2016-Jun-22 03:33N 42°56' E 009°31'1212.0
2016-Jun-22 02:33N 43°07' E 009°25'1212.4
2016-Jun-22 01:33N 43°18' E 009°16'1212.2
2016-Jun-22 00:33N 43°28' E 009°08'1212.3
2016-Jun-21 23:33N 43°39' E 008°59'1312.6
2016-Jun-21 22:33N 43°50' E 008°51'1212.4
2016-Jun-21 21:34N 44°01' E 008°42'1212.4
2016-Jun-21 20:33N 44°11' E 008°33'6 6.1
2016-Jun-21 19:32N 44°16' E 008°27'0 0.0
2016-Jun-21 18:29N 44°16' E 008°27'0 0.0
2016-Jun-21 17:32N 44°16' E 008°27'0 0.0
2016-Jun-21 16:29N 44°16' E 008°27'0 0.0
2016-Jun-21 15:32N 44°16' E 008°27'9 9.7
2016-Jun-21 14:33N 44°09' E 008°37'1919.4
2016-Jun-21 13:33N 43°53' E 008°50'2019.9
2016-Jun-21 12:33N 43°35' E 009°03'2019.8
2016-Jun-21 11:33N 43°18' E 009°17'2019.7
2016-Jun-21 10:33N 43°01' E 009°31'1818.4
2016-Jun-21 09:33N 42°43' E 009°29'4 0.7
2016-Jun-21 04:30N 42°46' E 009°31'1414.8
2016-Jun-21 03:34N 42°60' E 009°31'1515.1
2016-Jun-21 02:33N 43°13' E 009°21'1615.5
2016-Jun-21 01:33N 43°26' E 009°10'1615.6
2016-Jun-21 00:33N 43°40' E 008°59'1515.3
2016-Jun-20 23:33N 43°53' E 008°48'1515.3
2016-Jun-20 22:33N 44°06' E 008°37'1212.4
2016-Jun-20 21:33N 44°16' E 008°27'0 0.0
2016-Jun-20 20:30N 44°16' E 008°27'1111.9
2016-Jun-20 19:33N 44°08' E 008°38'2020.2
2016-Jun-20 18:33N 43°50' E 008°52'2020.0
2016-Jun-20 17:33N 43°33' E 009°05'2020.1
2016-Jun-20 16:33N 43°15' E 009°19'2019.6
2016-Jun-20 15:33N 42°58' E 009°31'14 7.2
2016-Jun-20 13:33N 42°43' E 009°31'2020.1
2016-Jun-20 12:33N 42°56' E 009°52'2019.7
2016-Jun-20 11:33N 43°14' E 010°04'1919.1
2016-Jun-20 10:34N 43°32' E 010°15'3 2.6
2016-Jun-20 09:31N 43°33' E 010°18'1 0.9
2016-Jun-20 08:33N 43°32' E 010°17'1716.8
2016-Jun-20 07:33N 43°17' E 010°07'1919.4
2016-Jun-20 06:33N 42°59' E 009°57'2019.6
2016-Jun-20 05:33N 42°46' E 009°37'7 3.5
2016-Jun-20 03:34N 42°43' E 009°29'1212.0
2016-Jun-20 02:33N 42°54' E 009°32'1313.1
2016-Jun-20 01:34N 43°07' E 009°26'1313.2
2016-Jun-20 00:33N 43°18' E 009°16'1514.6
2016-Jun-19 23:34N 43°31' E 009°06'1515.0
2016-Jun-19 22:34N 43°44' E 008°56'1515.4
2016-Jun-19 21:34N 43°57' E 008°45'1515.2
2016-Jun-19 20:33N 44°10' E 008°34'8 8.0
2016-Jun-19 19:33N 44°16' E 008°27'0 0.0
2016-Jun-19 18:33N 44°16' E 008°27'  
Track history (hours):
 
Tides and Currents Weather Stations Pressure Air Temp Water Temp Dewpoint Dewpoint Depression Visibility Wind Speed Wind Dir Waves Ship Positions

Mega Smeralda

Last reported at 2016-Jun-29 17:34 UTC. Time now 2016-Jun-29 18:16 UTC.
Position N 43°07' E 005°56'.

Length 171 m; draft 6.4 m.

Type: Passenger vessel. MMSI: 247228600.

Date/timePositionNaut miles runAvg speedWind from/ knotsBaromVisibWave heightAir tempDewpointWater temp
2016-Jun-29 17:34N 43°07' E 005°56'1211.7
2016-Jun-29 16:32N 42°57' E 006°05'6218.4
2016-Jun-29 13:10N 42°25' E 007°17'2018.5
2016-Jun-29 12:05N 42°14' E 007°40'1018.4
2016-Jun-29 11:32N 42°08' E 007°51'2118.4
2016-Jun-29 10:25N 41°57' E 008°15'42 4.2
2016-Jun-29 00:33N 42°20' E 007°27'1716.5
2016-Jun-28 23:32N 42°29' E 007°08'1716.6
2016-Jun-28 22:32N 42°37' E 006°49'1716.8
2016-Jun-28 21:32N 42°46' E 006°30'1916.6
2016-Jun-28 20:24N 42°56' E 006°08'1315.0
2016-Jun-28 19:32N 43°05' E 005°55'2 1.6
2016-Jun-28 18:31N 43°07' E 005°56'0 0.5
2016-Jun-28 17:33N 43°07' E 005°55'1714.8
2016-Jun-28 16:24N 42°56' E 006°14'1819.2
2016-Jun-28 15:29N 43°02' E 006°37'1920.2
2016-Jun-28 14:34N 43°16' E 006°54'2020.3
2016-Jun-28 13:34N 43°31' E 007°12'1110.9
2016-Jun-28 12:33N 43°41' E 007°17'1716.4
2016-Jun-28 11:32N 43°34' E 007°38'2020.4
2016-Jun-28 10:33N 43°27' E 008°04'2020.0
2016-Jun-28 09:33N 43°19' E 008°29'2019.9
2016-Jun-28 08:33N 43°12' E 008°55'2020.0
2016-Jun-28 07:33N 43°05' E 009°20'1817.9
2016-Jun-28 06:34N 42°50' E 009°32'8 4.0
2016-Jun-28 04:33N 42°42' E 009°29'1211.6
2016-Jun-28 03:33N 42°54' E 009°32'1212.3
2016-Jun-28 02:32N 43°06' E 009°26'1212.7
2016-Jun-28 01:33N 43°16' E 009°17'1312.9
2016-Jun-28 00:33N 43°27' E 009°09'1312.6
2016-Jun-27 23:33N 43°38' E 008°60'1212.4
2016-Jun-27 22:33N 43°49' E 008°51'1312.6
2016-Jun-27 21:33N 43°60' E 008°42'1312.6
2016-Jun-27 20:33N 44°11' E 008°33'7 6.8
2016-Jun-27 19:31N 44°16' E 008°27'0 0.0
2016-Jun-27 18:25N 44°16' E 008°27'0 0.0
2016-Jun-27 17:31N 44°16' E 008°27'0 0.0
2016-Jun-27 16:31N 44°16' E 008°27'0 0.0
2016-Jun-27 15:31N 44°16' E 008°27'9 9.8
2016-Jun-27 14:33N 44°10' E 008°37'2019.8
2016-Jun-27 13:33N 43°52' E 008°50'2020.1
2016-Jun-27 12:33N 43°35' E 009°04'2019.9
2016-Jun-27 11:34N 43°18' E 009°18'1919.3
2016-Jun-27 10:33N 43°02' E 009°34'16 2.6
2016-Jun-27 04:29N 42°46' E 009°32'1717.4
2016-Jun-27 03:30N 43°03' E 009°26'5819.4
2016-Jun-27 00:30N 43°00' E 008°07'2219.5
2016-Jun-26 23:22N 42°59' E 007°37'1619.4
2016-Jun-26 22:33N 42°58' E 007°15'5617.8
2016-Jun-26 19:26N 43°03' E 005°59'5 5.6
2016-Jun-26 18:33N 43°07' E 005°56'0 0.0
2016-Jun-26 17:33N 43°07' E 005°56'0 0.0
2016-Jun-26 16:33N 43°07' E 005°56'0 0.0
2016-Jun-26 15:33N 43°07' E 005°56'0 0.0
2016-Jun-26 14:33N 43°07' E 005°56'0 0.0
2016-Jun-26 13:33N 43°07' E 005°56'0 0.0
2016-Jun-26 12:33N 43°07' E 005°56'0 0.0
2016-Jun-26 11:33N 43°07' E 005°56'0 0.0
2016-Jun-26 10:33N 43°07' E 005°56'0 0.0
2016-Jun-26 09:33N 43°07' E 005°56'0 0.0
2016-Jun-26 08:33N 43°07' E 005°56'0 0.0
2016-Jun-26 07:33N 43°07' E 005°56'0 0.0
2016-Jun-26 06:33N 43°07' E 005°56'4013.1
2016-Jun-26 03:31N 42°42' E 006°39'1717.5
2016-Jun-26 02:33N 42°33' E 006°58'1717.4
2016-Jun-26 01:33N 42°24' E 007°18'34 3.7
2016-Jun-25 16:33N 42°38' E 007°59'2020.2
2016-Jun-25 15:33N 42°56' E 007°47'2019.8
2016-Jun-25 14:33N 43°14' E 007°36'2020.1
2016-Jun-25 13:33N 43°32' E 007°23'1110.1
2016-Jun-25 12:29N 43°42' E 007°17'5 5.6
2016-Jun-25 11:33N 43°37' E 007°20'2020.1
2016-Jun-25 10:33N 43°19' E 007°32'2020.3
2016-Jun-25 09:33N 43°01' E 007°44'2020.5
2016-Jun-25 08:33N 42°42' E 007°56'2020.3
2016-Jun-25 07:33N 42°24' E 008°09'37 4.5
2016-Jun-24 23:18N 42°24' E 007°18'1517.9
2016-Jun-24 22:29N 42°32' E 007°01'1717.8
2016-Jun-24 21:32N 42°41' E 006°42'1817.9
2016-Jun-24 20:30N 42°50' E 006°21'2017.9
2016-Jun-24 19:24N 43°03' E 005°59'5 5.8
2016-Jun-24 18:34N 43°07' E 005°56'0 0.0
2016-Jun-24 17:34N 43°07' E 005°56'0 0.0
2016-Jun-24 16:34N 43°07' E 005°56'0 0.0
2016-Jun-24 15:34N 43°07' E 005°56'0 0.0
2016-Jun-24 14:34N 43°07' E 005°56'0 0.0
2016-Jun-24 13:31N 43°07' E 005°56'0 0.0
2016-Jun-24 12:31N 43°07' E 005°56'0 0.0
2016-Jun-24 11:31N 43°07' E 005°56'0 0.0
2016-Jun-24 10:34N 43°07' E 005°56'0 0.0
2016-Jun-24 09:33N 43°07' E 005°56'0 0.0
2016-Jun-24 08:34N 43°07' E 005°56'0 0.0
2016-Jun-24 07:34N 43°07' E 005°56'2 0.7
2016-Jun-24 04:33N 43°05' E 005°57'5216.7
2016-Jun-24 01:27N 42°58' E 007°07'2018.5
2016-Jun-24 00:23N 42°59' E 007°34'1618.3
2016-Jun-23 23:29N 43°00' E 007°57'1718.7
2016-Jun-23 22:34N 43°01' E 008°20'1818.5
2016-Jun-23 21:33N 43°02' E 008°46'1918.5
2016-Jun-23 20:34N 43°03' E 009°11'1615.8
2016-Jun-23 19:33N 42°58' E 009°32'17 4.8
2016-Jun-23 16:06N 42°42' E 009°28'917.1
2016-Jun-23 15:33N 42°48' E 009°38'1818.4
2016-Jun-23 14:33N 42°60' E 009°57'1919.2
2016-Jun-23 13:33N 43°18' E 010°06'1716.6
2016-Jun-23 12:33N 43°32' E 010°16'1 1.3
2016-Jun-23 11:32N 43°33' E 010°18'0 0.4
2016-Jun-23 10:34N 43°33' E 010°18'1313.1
2016-Jun-23 09:33N 43°21' E 010°09'1716.6
2016-Jun-23 08:33N 43°06' E 010°01'1616.3
2016-Jun-23 07:33N 42°53' E 009°48'12 2.9
2016-Jun-23 03:33N 42°54' E 009°32'1312.6
2016-Jun-23 02:33N 43°06' E 009°26'1312.7
2016-Jun-23 01:34N 43°17' E 009°17'1312.7
2016-Jun-23 00:33N 43°28' E 009°09'1312.7
2016-Jun-22 23:33N 43°39' E 008°60'1312.6
2016-Jun-22 22:33N 43°50' E 008°51'1212.5
2016-Jun-22 21:33N 44°00' E 008°42'1212.4
2016-Jun-22 20:33N 44°11' E 008°33'7 6.1
2016-Jun-22 19:28N 44°16' E 008°27'0 0.0
2016-Jun-22 18:31N 44°16' E 008°27'0 0.0
2016-Jun-22 17:31N 44°16' E 008°27'0 0.0
2016-Jun-22 16:31N 44°16' E 008°27'0 0.0
2016-Jun-22 15:31N 44°16' E 008°27'9 8.9
2016-Jun-22 14:33N 44°10' E 008°36'2020.0
2016-Jun-22 13:33N 43°53' E 008°50'2020.3
2016-Jun-22 12:34N 43°35' E 009°04'2120.7
2016-Jun-22 11:33N 43°17' E 009°18'2120.5
2016-Jun-22 10:33N 42°60' E 009°32'13 2.1
2016-Jun-22 04:19N 42°47' E 009°32'911.9
2016-Jun-22 03:33N 42°56' E 009°31'1212.0
2016-Jun-22 02:33N 43°07' E 009°25'1212.4
2016-Jun-22 01:33N 43°18' E 009°16'1212.2
2016-Jun-22 00:33N 43°28' E 009°08'1212.3
2016-Jun-21 23:33N 43°39' E 008°59'1312.6
2016-Jun-21 22:33N 43°50' E 008°51'1212.4
2016-Jun-21 21:34N 44°01' E 008°42'1212.4
2016-Jun-21 20:33N 44°11' E 008°33'6 6.1
2016-Jun-21 19:32N 44°16' E 008°27'0 0.0
2016-Jun-21 18:29N 44°16' E 008°27'0 0.0
2016-Jun-21 17:32N 44°16' E 008°27'0 0.0
2016-Jun-21 16:29N 44°16' E 008°27'0 0.0
2016-Jun-21 15:32N 44°16' E 008°27'9 9.7
2016-Jun-21 14:33N 44°09' E 008°37'1919.4
2016-Jun-21 13:33N 43°53' E 008°50'2019.9
2016-Jun-21 12:33N 43°35' E 009°03'2019.8
2016-Jun-21 11:33N 43°18' E 009°17'2019.7
2016-Jun-21 10:33N 43°01' E 009°31'1818.4
2016-Jun-21 09:33N 42°43' E 009°29'4 0.7
2016-Jun-21 04:30N 42°46' E 009°31'1414.8
2016-Jun-21 03:34N 42°60' E 009°31'1515.1
2016-Jun-21 02:33N 43°13' E 009°21'1615.5
2016-Jun-21 01:33N 43°26' E 009°10'1615.6
2016-Jun-21 00:33N 43°40' E 008°59'1515.3
2016-Jun-20 23:33N 43°53' E 008°48'1515.3
2016-Jun-20 22:33N 44°06' E 008°37'1212.4
2016-Jun-20 21:33N 44°16' E 008°27'0 0.0
2016-Jun-20 20:30N 44°16' E 008°27'1111.9
2016-Jun-20 19:33N 44°08' E 008°38'2020.2
2016-Jun-20 18:33N 43°50' E 008°52'2020.0
2016-Jun-20 17:33N 43°33' E 009°05'2020.1
2016-Jun-20 16:33N 43°15' E 009°19'2019.6
2016-Jun-20 15:33N 42°58' E 009°31'14 7.2
2016-Jun-20 13:33N 42°43' E 009°31'2020.1
2016-Jun-20 12:33N 42°56' E 009°52'2019.7
2016-Jun-20 11:33N 43°14' E 010°04'1919.1
2016-Jun-20 10:34N 43°32' E 010°15'3 2.6
2016-Jun-20 09:31N 43°33' E 010°18'1 0.9
2016-Jun-20 08:33N 43°32' E 010°17'1716.8
2016-Jun-20 07:33N 43°17' E 010°07'1919.4
2016-Jun-20 06:33N 42°59' E 009°57'2019.6
2016-Jun-20 05:33N 42°46' E 009°37'7 3.5
2016-Jun-20 03:34N 42°43' E 009°29'1212.0
2016-Jun-20 02:33N 42°54' E 009°32'1313.1
2016-Jun-20 01:34N 43°07' E 009°26'1313.2
2016-Jun-20 00:33N 43°18' E 009°16'1514.6
2016-Jun-19 23:34N 43°31' E 009°06'1515.0
2016-Jun-19 22:34N 43°44' E 008°56'1515.4
2016-Jun-19 21:34N 43°57' E 008°45'1515.2
2016-Jun-19 20:33N 44°10' E 008°34'8 8.0
2016-Jun-19 19:33N 44°16' E 008°27'0 0.0
2016-Jun-19 18:33N 44°16' E 008°27'  

Dump ship's entire track history